createdAt,value
2019-05-12T00:02:18.715Z,46.48
2019-05-12T00:04:50.170Z,47.15
2019-05-12T00:07:21.729Z,40.45
2019-05-12T00:09:53.435Z,41.92
2019-05-12T00:12:24.845Z,40.75
2019-05-12T00:14:58.918Z,41.30
2019-05-12T00:17:29.497Z,35.03
2019-05-12T00:20:01.155Z,37.20
2019-05-12T00:22:34.047Z,32.65
2019-05-12T00:25:08.825Z,26.45
2019-05-12T00:27:40.252Z,28.07
2019-05-12T00:30:13.324Z,30.60
2019-05-12T00:32:44.677Z,29.65
2019-05-12T00:35:18.161Z,38.78
2019-05-12T00:37:49.418Z,49.67
2019-05-12T00:40:20.867Z,51.58
2019-05-12T00:42:52.432Z,58.73
2019-05-12T00:45:23.709Z,52.80
2019-05-12T00:47:54.933Z,70.67
2019-05-12T00:50:26.073Z,93.27
2019-05-12T00:52:58.242Z,93.55
2019-05-12T00:55:30.118Z,51.20
2019-05-12T00:58:01.364Z,70.62
2019-05-12T01:00:32.510Z,52.25
2019-05-12T01:03:04.168Z,64.12
2019-05-12T01:05:38.015Z,53.15
2019-05-12T01:08:09.498Z,118.72
2019-05-12T01:10:41.192Z,147.68
2019-05-12T01:13:12.640Z,52.90
2019-05-12T01:15:43.996Z,88.60
2019-05-12T01:18:17.975Z,118.25
2019-05-12T01:20:48.652Z,93.45
2019-05-12T01:23:23.340Z,94.10
2019-05-12T01:25:53.408Z,116.47
2019-05-12T01:28:24.951Z,68.30
2019-05-12T01:30:58.346Z,86.70
2019-05-12T01:33:29.501Z,91.67
2019-05-12T01:36:01.060Z,92.10
2019-05-12T01:38:32.515Z,64.22
2019-05-12T01:41:04.278Z,57.78
2019-05-12T01:43:38.096Z,58.15
2019-05-12T01:46:08.724Z,41.35
2019-05-12T01:48:39.875Z,36.45
2019-05-12T01:51:11.555Z,38.50
2019-05-12T01:53:43.090Z,38.50
2019-05-12T01:56:14.648Z,39.75
2019-05-12T01:58:48.422Z,40.48
2019-05-12T02:01:19.715Z,45.10
2019-05-12T02:03:52.416Z,37.55
2019-05-12T02:06:24.257Z,31.45
2019-05-12T02:08:58.173Z,36.23
2019-05-12T02:11:32.495Z,37.58
2019-05-12T02:14:04.258Z,33.83
2019-05-12T02:16:35.703Z,38.75
2019-05-12T02:19:09.046Z,42.38
2019-05-12T02:21:40.968Z,36.73
2019-05-12T02:24:23.344Z,32.60
2019-05-12T02:26:44.891Z,30.68
2019-05-12T02:29:18.315Z,30.00
2019-05-12T02:31:50.291Z,25.92
2019-05-12T02:34:25.102Z,25.72
2019-05-12T02:36:55.457Z,32.58
2019-05-12T02:39:26.802Z,29.25
2019-05-12T02:41:58.428Z,31.68
2019-05-12T02:44:30.078Z,32.05
2019-05-12T02:47:04.907Z,31.62
2019-05-12T02:49:34.987Z,27.90
2019-05-12T02:52:06.603Z,28.02
2019-05-12T02:54:51.930Z,30.88
2019-05-12T02:57:14.292Z,32.73
2019-05-12T02:59:45.668Z,28.42
2019-05-12T03:02:17.535Z,32.83
2019-05-12T03:04:48.684Z,32.60
2019-05-12T03:07:19.831Z,33.40
2019-05-12T03:09:54.836Z,29.80
2019-05-12T03:12:25.688Z,32.73
2019-05-12T03:14:56.960Z,26.27
2019-05-12T03:17:28.425Z,31.10
2019-05-12T03:19:59.769Z,35.80
2019-05-12T03:22:31.134Z,39.15
2019-05-12T03:25:11.820Z,39.23
2019-05-12T03:27:35.404Z,34.65
2019-05-12T03:30:11.713Z,31.30
2019-05-12T03:32:39.992Z,28.57
2019-05-12T03:35:17.000Z,27.93
2019-05-12T03:37:45.300Z,27.48
2019-05-12T03:40:16.827Z,28.47
2019-05-12T03:42:48.184Z,27.10
2019-05-12T03:45:19.638Z,31.68
2019-05-12T03:47:50.992Z,30.35
2019-05-12T03:50:24.342Z,30.55
2019-05-12T03:52:56.624Z,27.62
2019-05-12T03:55:35.880Z,31.70
2019-05-12T03:58:00.911Z,28.83
2019-05-12T04:00:35.931Z,31.30
2019-05-12T04:03:06.332Z,32.05
2019-05-12T04:05:37.639Z,30.60
2019-05-12T04:08:10.000Z,28.55
2019-05-12T04:10:41.561Z,27.93
2019-05-12T04:13:15.109Z,30.23
2019-05-12T04:15:46.201Z,31.95
2019-05-12T04:18:17.401Z,33.98
2019-05-12T04:20:49.224Z,28.55
2019-05-12T04:23:20.675Z,34.13
2019-05-12T04:25:58.388Z,34.10
2019-05-12T04:28:24.808Z,37.50
2019-05-12T04:30:57.089Z,37.33
2019-05-12T04:33:28.542Z,33.70
2019-05-12T04:35:59.901Z,37.60
2019-05-12T04:38:31.149Z,46.18
2019-05-12T04:41:05.721Z,47.08
2019-05-12T04:43:35.793Z,44.90
2019-05-12T04:46:07.558Z,44.42
2019-05-12T04:48:38.802Z,39.10
2019-05-12T04:51:10.563Z,41.18
2019-05-12T04:53:44.891Z,41.88
2019-05-12T04:56:20.131Z,39.67
2019-05-12T04:58:47.895Z,39.00
2019-05-12T05:01:19.453Z,36.73
2019-05-12T05:03:50.604Z,38.30
2019-05-12T05:06:21.748Z,37.65
2019-05-12T05:08:54.430Z,35.05
2019-05-12T05:11:25.881Z,28.92
2019-05-12T05:13:57.566Z,26.52
2019-05-12T05:16:28.903Z,23.90
2019-05-12T05:19:00.147Z,23.67
2019-05-12T05:21:31.601Z,19.57
2019-05-12T05:24:03.888Z,17.90
2019-05-12T05:26:37.469Z,17.02
2019-05-12T05:29:08.110Z,18.35
2019-05-12T05:31:39.772Z,17.10
2019-05-12T05:34:11.430Z,17.17
2019-05-12T05:36:43.447Z,16.32
2019-05-12T05:39:14.745Z,17.27
2019-05-12T05:41:50.900Z,18.25
2019-05-12T05:44:19.206Z,13.78
2019-05-12T05:46:54.544Z,16.02
2019-05-12T05:49:24.972Z,12.23
2019-05-12T05:51:57.600Z,17.30
2019-05-12T05:54:31.372Z,11.70
2019-05-12T05:57:03.051Z,13.00
2019-05-12T05:59:36.856Z,16.35
2019-05-12T06:02:07.677Z,17.07
2019-05-12T06:04:43.840Z,14.30
2019-05-12T06:07:14.239Z,15.00
2019-05-12T06:09:45.106Z,16.10
2019-05-12T06:12:16.459Z,16.15
2019-05-12T06:14:54.327Z,15.05
2019-05-12T06:17:20.906Z,12.33
2019-05-12T06:19:53.872Z,13.50
2019-05-12T06:22:25.050Z,13.75
2019-05-12T06:24:58.878Z,14.95
2019-05-12T06:27:32.701Z,14.15
2019-05-12T06:30:06.201Z,14.70
2019-05-12T06:32:35.881Z,14.73
2019-05-12T06:35:07.341Z,14.68
2019-05-12T06:37:44.208Z,15.60
2019-05-12T06:40:15.365Z,15.38
2019-05-12T06:42:48.417Z,14.90
2019-05-12T06:45:20.531Z,14.28
2019-05-12T06:47:54.110Z,14.07
2019-05-12T06:50:28.592Z,13.58
2019-05-12T06:52:58.072Z,13.88
2019-05-12T06:55:34.380Z,13.53
2019-05-12T06:58:04.775Z,12.53
2019-05-12T07:00:35.712Z,13.20
2019-05-12T07:03:07.472Z,11.50
2019-05-12T07:05:42.507Z,12.58
2019-05-12T07:08:12.022Z,12.25
2019-05-12T07:10:46.852Z,11.15
2019-05-12T07:13:23.223Z,11.03
2019-05-12T07:15:49.654Z,9.63
2019-05-12T07:18:31.619Z,8.05
2019-05-12T07:20:55.431Z,7.83
2019-05-12T07:23:30.229Z,8.70
2019-05-12T07:26:04.772Z,8.40
2019-05-12T07:28:36.217Z,9.53
2019-05-12T07:31:05.658Z,9.25
2019-05-12T07:33:41.539Z,9.13
2019-05-12T07:36:10.776Z,8.30
2019-05-12T07:38:43.388Z,10.25
2019-05-12T07:41:15.469Z,8.35
2019-05-12T07:43:50.526Z,9.75
2019-05-12T07:46:19.810Z,8.75
2019-05-12T07:48:51.163Z,9.33
2019-05-12T07:51:24.143Z,9.65
2019-05-12T07:53:58.966Z,8.83
2019-05-12T07:56:32.585Z,9.15
2019-05-12T07:59:04.193Z,8.85
2019-05-12T08:01:35.878Z,9.03
2019-05-12T08:04:07.255Z,8.85
2019-05-12T08:06:41.693Z,7.67
2019-05-12T08:09:13.559Z,7.90
2019-05-12T08:11:45.001Z,7.00
2019-05-12T08:14:26.811Z,7.97
2019-05-12T08:16:50.067Z,7.97
2019-05-12T08:19:26.560Z,7.92
2019-05-12T08:21:54.713Z,7.08
2019-05-12T08:24:26.310Z,6.80
2019-05-12T08:27:03.124Z,7.17
2019-05-12T08:29:30.620Z,7.85
2019-05-12T08:32:03.806Z,6.97
2019-05-12T08:34:35.158Z,7.28
2019-05-12T08:37:07.736Z,7.08
2019-05-12T08:39:39.197Z,10.45
2019-05-12T08:42:10.853Z,7.42
2019-05-12T08:44:43.926Z,7.25
2019-05-12T08:47:15.364Z,7.17
2019-05-12T08:49:55.060Z,7.65
2019-05-12T08:52:19.439Z,8.15
2019-05-12T08:54:51.460Z,7.20
2019-05-12T08:57:24.808Z,6.97
2019-05-12T09:00:02.750Z,7.08
2019-05-12T09:02:29.144Z,8.03
2019-05-12T09:05:00.800Z,8.40
2019-05-12T09:07:35.977Z,8.03
2019-05-12T09:10:08.018Z,7.05
2019-05-12T09:12:39.519Z,8.00
2019-05-12T09:15:13.410Z,8.43
2019-05-12T09:17:52.539Z,7.55
2019-05-12T09:20:18.024Z,8.90
2019-05-12T09:22:55.030Z,8.15
2019-05-12T09:25:23.885Z,8.18
2019-05-12T09:27:55.244Z,7.55
2019-05-12T09:30:28.923Z,8.08
2019-05-12T09:33:00.595Z,7.65
2019-05-12T09:35:34.784Z,7.87
2019-05-12T09:38:06.142Z,7.67
2019-05-12T09:40:37.518Z,7.30
2019-05-12T09:43:10.699Z,7.10
2019-05-12T09:45:52.099Z,5.92
2019-05-12T09:48:15.397Z,6.72
2019-05-12T09:50:51.555Z,7.08
2019-05-12T09:53:19.830Z,6.65
2019-05-12T09:55:53.759Z,7.00
2019-05-12T09:58:27.686Z,5.55
2019-05-12T10:00:57.327Z,5.87
2019-05-12T10:03:30.876Z,6.50
2019-05-12T10:06:03.667Z,5.75
2019-05-12T10:08:35.544Z,4.65
2019-05-12T10:11:10.250Z,4.60
2019-05-12T10:13:44.897Z,4.78
2019-05-12T10:16:15.979Z,4.45
2019-05-12T10:18:51.300Z,4.22
2019-05-12T10:21:20.111Z,3.90
2019-05-12T10:23:56.407Z,4.08
2019-05-12T10:26:23.936Z,4.10
2019-05-12T10:28:58.375Z,3.52
2019-05-12T10:31:29.524Z,3.85
2019-05-12T10:34:18.992Z,3.40
2019-05-12T10:36:53.505Z,3.10
2019-05-12T10:39:24.583Z,3.22
2019-05-12T10:41:56.741Z,3.00
2019-05-12T10:44:29.911Z,3.80
2019-05-12T10:47:04.401Z,3.67
2019-05-12T10:49:36.005Z,3.83
2019-05-12T10:52:07.663Z,3.67
2019-05-12T10:54:38.924Z,3.72
2019-05-12T10:57:10.063Z,3.83
2019-05-12T10:59:45.226Z,3.70
2019-05-12T11:02:14.027Z,3.00
2019-05-12T11:04:45.449Z,3.72
2019-05-12T11:07:16.910Z,3.62
2019-05-12T11:09:49.998Z,3.65
2019-05-12T11:12:25.292Z,3.83
2019-05-12T11:15:01.070Z,4.03
2019-05-12T11:17:33.463Z,3.92
2019-05-12T11:20:04.276Z,3.55
2019-05-12T11:22:35.467Z,3.92
2019-05-12T11:25:07.122Z,3.95
2019-05-12T11:27:38.474Z,3.58
2019-05-12T11:30:10.256Z,3.50
2019-05-12T11:32:41.693Z,3.58
2019-05-12T11:35:14.331Z,3.95
2019-05-12T11:37:45.521Z,3.47
2019-05-12T11:40:16.704Z,3.17
2019-05-12T11:42:55.671Z,3.40
2019-05-12T11:45:21.215Z,3.85
2019-05-12T11:47:59.172Z,3.70
2019-05-12T11:50:25.676Z,3.92
2019-05-12T11:52:57.002Z,3.77
2019-05-12T11:55:31.539Z,3.77
2019-05-12T11:58:06.796Z,3.92
2019-05-12T12:00:35.657Z,3.72
2019-05-12T12:03:12.544Z,4.30
2019-05-12T12:05:39.787Z,4.25
2019-05-12T12:08:10.836Z,3.92
2019-05-12T12:10:42.171Z,3.85
2019-05-12T12:13:14.113Z,3.80
2019-05-12T12:15:45.298Z,3.75
2019-05-12T12:18:16.340Z,3.87
2019-05-12T12:20:48.209Z,3.72
2019-05-12T12:23:19.636Z,4.22
2019-05-12T12:25:53.268Z,4.03
2019-05-12T12:28:24.287Z,3.65
2019-05-12T12:31:00.370Z,4.42
2019-05-12T12:33:30.979Z,4.15
2019-05-12T12:36:03.939Z,3.87
2019-05-12T12:38:34.634Z,4.78
2019-05-12T12:41:05.979Z,5.05
2019-05-12T12:43:37.364Z,4.42
2019-05-12T12:46:10.750Z,4.72
2019-05-12T12:48:43.982Z,4.78
2019-05-12T12:51:17.445Z,4.83
2019-05-12T12:53:48.066Z,6.80
2019-05-12T12:56:27.678Z,5.55
2019-05-12T12:58:52.101Z,6.50
2019-05-12T13:01:28.446Z,8.18
2019-05-12T13:03:59.436Z,9.13
2019-05-12T13:06:29.641Z,10.80
2019-05-12T13:09:00.997Z,10.08
2019-05-12T13:11:34.931Z,11.95
2019-05-12T13:14:05.441Z,6.28
2019-05-12T13:16:36.684Z,5.53
2019-05-12T13:19:12.330Z,5.22
2019-05-12T13:21:41.125Z,5.03
2019-05-12T13:24:12.177Z,4.80
2019-05-12T13:26:43.695Z,4.90
2019-05-12T13:29:14.987Z,4.40
2019-05-12T13:31:48.300Z,4.95
2019-05-12T13:34:19.153Z,5.58
2019-05-12T13:36:50.586Z,7.83
2019-05-12T13:39:24.248Z,5.25
2019-05-12T13:41:58.543Z,4.37
2019-05-12T13:44:30.437Z,6.58
2019-05-12T13:47:00.710Z,7.10
2019-05-12T13:49:38.419Z,6.47
2019-05-12T13:52:06.057Z,6.65
2019-05-12T13:54:37.745Z,7.50
2019-05-12T13:57:11.792Z,7.15
2019-05-12T13:59:43.550Z,7.70
2019-05-12T14:02:22.077Z,8.53
2019-05-12T14:04:48.864Z,10.98
2019-05-12T14:07:20.389Z,6.78
2019-05-12T14:09:51.872Z,5.92
2019-05-12T14:12:23.328Z,7.35
2019-05-12T14:14:54.798Z,7.53
2019-05-12T14:17:26.134Z,8.38
2019-05-12T14:19:58.002Z,8.28
2019-05-12T14:22:29.455Z,6.65
2019-05-12T14:25:02.243Z,6.10
2019-05-12T14:27:33.492Z,6.70
2019-05-12T14:30:11.474Z,7.47
2019-05-12T14:35:10.117Z,7.55
2019-05-12T14:37:45.769Z,7.20
2019-05-12T14:40:15.163Z,5.50
2019-05-12T14:42:46.228Z,4.65
2019-05-12T14:45:19.465Z,5.25
2019-05-12T14:47:50.256Z,5.37
2019-05-12T14:50:21.502Z,5.50
2019-05-12T14:52:55.914Z,5.03
2019-05-12T14:55:26.032Z,4.60
2019-05-12T14:57:57.299Z,4.95
2019-05-12T15:00:29.176Z,4.92
2019-05-12T15:03:05.478Z,7.53
2019-05-12T15:05:33.811Z,8.85
2019-05-12T15:08:05.377Z,7.83
2019-05-12T15:10:36.820Z,9.93
2019-05-12T15:13:08.171Z,8.60
2019-05-12T15:15:39.320Z,7.28
2019-05-12T15:18:13.181Z,7.22
2019-05-12T15:20:49.975Z,7.80
2019-05-12T15:23:16.863Z,9.20
2019-05-12T15:25:50.911Z,9.53
2019-05-12T15:28:23.462Z,9.53
2019-05-12T15:30:54.328Z,10.00
2019-05-12T15:33:26.468Z,9.88
2019-05-12T15:35:57.820Z,12.75
2019-05-12T15:38:29.274Z,11.03
2019-05-12T15:41:00.626Z,9.28
2019-05-12T15:43:35.790Z,10.63
2019-05-12T15:46:05.176Z,10.98
2019-05-12T15:48:36.627Z,11.55
2019-05-12T15:51:09.108Z,9.50
2019-05-12T15:53:44.600Z,9.23
2019-05-12T15:56:23.104Z,9.88
2019-05-12T15:58:55.830Z,9.05
2019-05-12T16:01:26.364Z,8.70
2019-05-12T16:03:59.232Z,5.87
2019-05-12T16:06:31.601Z,6.37
2019-05-12T16:09:04.843Z,5.97
2019-05-12T16:11:35.889Z,6.22
2019-05-12T16:14:06.832Z,7.45
2019-05-12T16:16:42.432Z,7.67
2019-05-12T16:19:11.060Z,7.97
2019-05-12T16:21:45.304Z,9.50
2019-05-12T16:24:15.777Z,10.40
2019-05-12T16:26:51.721Z,10.75
2019-05-12T16:29:19.860Z,7.12
2019-05-12T16:31:53.782Z,10.82
2019-05-12T16:34:25.040Z,9.88
2019-05-12T16:36:56.277Z,9.55
2019-05-12T16:39:30.502Z,10.35
2019-05-12T16:42:08.336Z,8.83
2019-05-12T16:44:34.858Z,12.47
2019-05-12T16:47:06.183Z,9.13
2019-05-12T16:49:37.641Z,11.97
2019-05-12T16:52:10.147Z,12.85
2019-05-12T16:54:43.885Z,14.07
2019-05-12T16:57:18.120Z,11.22
2019-05-12T16:59:55.556Z,8.35
2019-05-12T17:02:23.358Z,10.35
2019-05-12T17:04:54.028Z,7.92
2019-05-12T17:07:27.144Z,13.68
2019-05-12T17:10:03.047Z,10.80
2019-05-12T17:12:36.479Z,12.53
2019-05-12T17:15:05.088Z,13.55
2019-05-12T17:17:36.232Z,15.03
2019-05-12T17:20:07.927Z,14.78
2019-05-12T17:22:45.786Z,15.03
2019-05-12T17:25:15.299Z,14.45
2019-05-12T17:27:46.906Z,22.22
2019-05-12T17:30:18.375Z,21.73
2019-05-12T17:32:58.084Z,22.50
2019-05-12T17:35:27.084Z,25.60
2019-05-12T17:37:56.067Z,28.67
2019-05-12T17:40:27.864Z,24.60
2019-05-12T17:43:06.853Z,33.67
2019-05-12T17:45:32.172Z,27.90
2019-05-12T17:48:07.422Z,25.65
2019-05-12T17:50:40.385Z,24.05
2019-05-12T17:53:09.402Z,24.27
2019-05-12T17:55:42.725Z,24.98
2019-05-12T17:58:13.856Z,25.52
2019-05-12T18:00:47.692Z,23.60
2019-05-12T18:03:22.161Z,25.80
2019-05-12T18:05:52.971Z,28.32
2019-05-12T18:08:32.325Z,29.05
2019-05-12T18:10:57.082Z,25.82
2019-05-12T18:13:28.606Z,23.18
2019-05-12T18:16:02.912Z,28.02
2019-05-12T18:18:37.957Z,27.30
2019-05-12T18:21:06.109Z,30.52
2019-05-12T18:23:40.263Z,30.20
2019-05-12T18:26:15.918Z,30.00
2019-05-12T18:28:44.608Z,30.15
2019-05-12T18:31:16.181Z,30.65
2019-05-12T18:33:52.089Z,33.40
2019-05-12T18:36:23.665Z,32.30
2019-05-12T18:39:04.443Z,31.65
2019-05-12T18:41:28.521Z,29.65
2019-05-12T18:44:00.088Z,31.25
2019-05-12T18:46:38.668Z,29.48
2019-05-12T18:49:11.983Z,30.35
2019-05-12T18:51:37.705Z,30.12
2019-05-12T18:54:10.427Z,29.02
2019-05-12T18:56:44.037Z,26.27
2019-05-12T18:59:16.591Z,29.27
2019-05-12T19:01:48.329Z,28.17
2019-05-12T19:04:19.721Z,29.12
2019-05-12T19:06:51.157Z,26.95
2019-05-12T19:09:23.895Z,20.10
2019-05-12T19:11:55.392Z,21.95
2019-05-12T19:14:34.936Z,28.80
2019-05-12T19:16:59.811Z,34.35
2019-05-12T19:19:31.469Z,30.05
2019-05-12T19:22:09.073Z,30.30
2019-05-12T19:24:36.475Z,29.27
2019-05-12T19:27:10.216Z,38.55
2019-05-12T19:29:48.190Z,37.45
2019-05-12T19:32:14.372Z,38.48
2019-05-12T19:34:46.278Z,35.73
2019-05-12T19:37:19.421Z,32.95
2019-05-12T19:39:50.995Z,31.52
2019-05-12T19:42:24.415Z,30.10
2019-05-12T19:44:59.662Z,24.63
2019-05-12T19:47:34.500Z,28.15
2019-05-12T19:50:08.860Z,31.60
2019-05-12T19:52:34.305Z,31.45
2019-05-12T19:55:08.527Z,32.23
2019-05-12T19:57:39.985Z,31.00
2019-05-12T20:00:13.649Z,30.15
2019-05-12T20:02:44.190Z,31.07
2019-05-12T20:05:17.641Z,32.55
2019-05-12T20:07:48.163Z,32.48
2019-05-12T20:10:19.719Z,33.33
2019-05-12T20:12:54.912Z,32.13
2019-05-12T20:15:24.255Z,31.12
2019-05-12T20:17:55.410Z,31.93
2019-05-12T20:20:36.645Z,32.23
2019-05-12T20:22:59.753Z,33.67
2019-05-12T20:25:31.107Z,37.28
2019-05-12T20:28:05.578Z,35.63
2019-05-12T20:30:35.551Z,37.28
2019-05-12T20:33:08.176Z,37.67
2019-05-12T20:35:47.324Z,36.58
2019-05-12T20:38:14.763Z,34.50
2019-05-12T20:40:45.457Z,32.30
2019-05-12T20:43:18.063Z,32.08
2019-05-12T20:45:49.700Z,33.05
2019-05-12T20:48:26.388Z,29.80
2019-05-12T20:50:54.761Z,30.57
2019-05-12T20:53:31.781Z,30.15
2019-05-12T20:56:00.209Z,27.77
2019-05-12T20:58:39.536Z,28.55
2019-05-12T21:01:08.463Z,28.73
2019-05-12T21:03:46.342Z,24.90
2019-05-12T21:06:14.564Z,26.20
2019-05-12T21:08:53.619Z,28.42
2019-05-12T21:11:19.796Z,32.28
2019-05-12T21:13:51.453Z,28.25
2019-05-12T21:16:31.244Z,30.12
2019-05-12T21:19:05.625Z,29.67
2019-05-12T21:21:34.247Z,27.80
2019-05-12T21:24:04.840Z,25.00
2019-05-12T21:26:37.872Z,25.02
2019-05-12T21:29:07.874Z,23.70
2019-05-12T21:31:39.519Z,22.17
2019-05-12T21:34:15.061Z,21.80
2019-05-12T21:36:44.595Z,22.87
2019-05-12T21:39:16.469Z,23.18
2019-05-12T21:41:52.101Z,22.32
2019-05-12T21:44:21.090Z,23.00
2019-05-12T21:47:03.776Z,22.62
2019-05-12T21:49:25.539Z,23.18
2019-05-12T21:52:02.974Z,24.77
2019-05-12T21:54:37.746Z,22.05
2019-05-12T21:57:03.796Z,23.52
2019-05-12T21:59:39.421Z,22.80
2019-05-12T22:02:08.138Z,21.20
2019-05-12T22:04:41.504Z,22.15
2019-05-12T22:07:14.584Z,20.12
2019-05-12T22:09:47.178Z,18.55
2019-05-12T22:12:23.505Z,18.35
2019-05-12T22:14:54.314Z,20.30
2019-05-12T22:17:27.722Z,18.95
2019-05-12T22:19:59.320Z,19.73
2019-05-12T22:22:33.214Z,19.30
2019-05-12T22:25:09.801Z,18.92
2019-05-12T22:27:39.547Z,20.75
2019-05-12T22:30:13.349Z,21.25
2019-05-12T22:32:44.228Z,18.57
2019-05-12T22:35:21.940Z,19.60
2019-05-12T22:37:49.072Z,20.45
2019-05-12T22:40:20.526Z,21.77
2019-05-12T22:42:57.033Z,21.95
2019-05-12T22:45:25.381Z,23.55
2019-05-12T22:47:59.080Z,23.90
2019-05-12T22:50:33.215Z,23.40
2019-05-12T22:53:04.436Z,22.10
2019-05-12T22:55:36.367Z,23.83
2019-05-12T22:58:10.842Z,24.37
2019-05-12T23:00:40.670Z,23.83
2019-05-12T23:03:14.974Z,22.32
2019-05-12T23:05:50.609Z,22.75
2019-05-12T23:08:19.743Z,23.22
2019-05-12T23:10:53.267Z,23.80
2019-05-12T23:13:24.008Z,25.00
2019-05-12T23:15:55.743Z,23.67
2019-05-12T23:18:30.700Z,23.38
2019-05-12T23:21:04.139Z,22.27
2019-05-12T23:23:34.083Z,17.73
2019-05-12T23:26:05.662Z,18.80
2019-05-12T23:28:40.499Z,18.65
2019-05-12T23:31:10.311Z,18.45
2019-05-12T23:33:44.129Z,16.15
2019-05-12T23:36:19.570Z,17.27
2019-05-12T23:38:51.996Z,16.25
2019-05-12T23:41:23.794Z,16.40
2019-05-12T23:43:56.701Z,15.83
2019-05-12T23:46:27.848Z,18.42
2019-05-12T23:48:59.506Z,18.35
2019-05-12T23:51:31.062Z,17.92
2019-05-12T23:54:03.782Z,21.15
2019-05-12T23:56:35.309Z,20.75
2019-05-12T23:59:06.659Z,19.92
